Time;durP1;ratioP1;P1;durP2;ratioP2;P2;SDS_P1;SDS_P2;PMS_P1;PMS_P2;Temp;Humidity;BMP_temperature;BMP_pressure;BME280_temperature;BME280_humidity;BME280_pressure;Samples;Min_cycle;Max_cycle;Signal;HPM_P1;HPM_P2
2022/03/18 00:01:49;;;;;;;55.58;29.50;;;4.50;99.90;;;;;;5001055;28;20180;-95
2022/03/18 00:04:14;;;;;;;42.03;28.63;;;4.40;99.90;;;;;;5006967;28;20246;-95
2022/03/18 00:06:40;;;;;;;36.07;22.50;;;4.40;99.90;;;;;;5004308;28;20184;-91
2022/03/18 00:09:06;;;;;;;31.50;21.53;;;4.30;99.90;;;;;;5005598;28;20228;-94
2022/03/18 00:11:32;;;;;;;42.90;23.80;;;4.30;99.90;;;;;;5001204;28;20180;-94
2022/03/18 00:14:03;;;;;;;45.43;26.40;;;4.30;99.90;;;;;;5001164;28;20218;-87
2022/03/18 00:16:29;;;;;;;42.05;25.30;;;4.20;99.90;;;;;;5006839;28;20159;-93
2022/03/18 00:18:55;;;;;;;35.33;24.03;;;4.10;99.90;;;;;;5010091;28;20222;-87
2022/03/18 00:21:21;;;;;;;42.43;26.13;;;4.10;99.90;;;;;;4997575;28;20426;-94
2022/03/18 00:23:47;;;;;;;36.58;24.63;;;4.10;99.90;;;;;;4995536;28;20408;-88
2022/03/18 00:26:13;;;;;;;39.10;26.67;;;4.00;99.90;;;;;;4994578;28;20614;-95
2022/03/18 00:28:39;;;;;;;39.73;27.23;;;4.00;99.90;;;;;;4994894;28;20611;-87
2022/03/18 00:31:08;;;;;;;39.25;24.90;;;4.00;99.90;;;;;;4995815;28;20408;-94
2022/03/18 00:33:34;;;;;;;34.13;23.02;;;4.00;99.90;;;;;;4995156;28;20254;-88
2022/03/18 00:36:01;;;;;;;37.65;23.90;;;4.00;99.90;;;;;;4996893;28;20218;-94
2022/03/18 00:38:27;;;;;;;33.35;22.33;;;4.00;99.90;;;;;;4996205;28;20216;-88
2022/03/18 00:40:56;;;;;;;35.20;23.70;;;4.00;99.90;;;;;;5011963;28;20551;-95
2022/03/18 00:43:22;;;;;;;35.03;21.52;;;4.00;99.90;;;;;;4996338;28;20566;-94
2022/03/18 00:45:48;;;;;;;51.15;30.45;;;4.00;99.90;;;;;;4996240;28;20172;-95
2022/03/18 00:53:43;;;;;;;42.47;24.67;;;4.00;99.90;;;;;;4997174;28;20210;-95
2022/03/18 00:56:09;;;;;;;41.37;24.80;;;3.90;99.90;;;;;;4995921;28;20176;-87
2022/03/18 00:58:34;;;;;;;41.20;23.67;;;3.90;99.90;;;;;;4994700;28;20234;-95
2022/03/18 01:01:00;;;;;;;35.87;23.00;;;3.90;99.90;;;;;;4996339;28;20180;-87
2022/03/18 01:03:26;;;;;;;31.90;21.53;;;3.80;99.90;;;;;;4999051;28;20246;-94
2022/03/18 01:05:52;;;;;;;38.87;23.30;;;3.80;99.90;;;;;;4999701;28;20436;-94
2022/03/18 01:08:18;;;;;;;34.40;22.50;;;3.80;99.90;;;;;;4997296;28;20452;-94
2022/03/18 01:10:44;;;;;;;32.63;23.03;;;3.70;99.90;;;;;;5008218;28;20206;-95
2022/03/18 01:13:10;;;;;;;35.85;23.15;;;3.70;99.90;;;;;;5007011;28;20200;-88
2022/03/18 01:15:36;;;;;;;34.85;24.10;;;3.60;99.90;;;;;;4993937;28;20190;-95
2022/03/18 01:18:02;;;;;;;35.47;22.80;;;3.60;99.90;;;;;;4994759;28;20219;-87
2022/03/18 01:20:29;;;;;;;34.67;23.38;;;3.50;99.90;;;;;;4999074;28;20403;-95
2022/03/18 01:22:55;;;;;;;36.08;23.90;;;3.50;99.90;;;;;;4995689;28;20196;-88
2022/03/18 01:25:20;;;;;;;34.17;22.27;;;3.40;99.90;;;;;;4994416;28;20187;-95
2022/03/18 01:27:46;;;;;;;32.13;20.80;;;3.40;99.90;;;;;;4995180;28;20219;-88
2022/03/18 01:30:16;;;;;;;33.70;21.60;;;3.40;99.90;;;;;;4994980;28;20775;-87
2022/03/18 01:32:42;;;;;;;29.70;20.50;;;3.40;99.90;;;;;;4995834;28;20669;-95
2022/03/18 01:35:08;;;;;;;36.65;23.00;;;3.40;99.90;;;;;;5013794;28;20268;-95
2022/03/18 01:37:34;;;;;;;31.70;20.65;;;3.40;99.90;;;;;;4993802;28;20312;-88
2022/03/18 01:40:00;;;;;;;39.63;25.73;;;3.40;99.90;;;;;;4995170;28;20234;-95
2022/03/18 01:42:25;;;;;;;45.10;27.60;;;3.30;99.90;;;;;;4994266;28;20563;-87
2022/03/18 01:44:51;;;;;;;45.60;25.53;;;3.30;99.90;;;;;;4998492;28;20258;-88
2022/03/18 01:47:18;;;;;;;38.83;24.80;;;3.30;99.90;;;;;;4997573;28;20288;-87
2022/03/18 01:49:44;;;;;;;46.85;27.52;;;3.30;99.90;;;;;;4998667;28;20183;-87
2022/03/18 01:52:11;;;;;;;41.33;25.50;;;3.30;99.90;;;;;;4999354;28;20210;-92
2022/03/18 01:54:50;;;;;;;43.22;25.55;;;3.20;99.90;;;;;;4997919;28;20247;-87
2022/03/18 01:57:21;;;;;;;39.78;26.02;;;3.20;99.90;;;;;;5005116;28;20269;-88
2022/03/18 01:59:48;;;;;;;47.28;24.92;;;3.10;99.90;;;;;;5014310;28;20186;-87
2022/03/18 02:02:15;;;;;;;49.08;27.02;;;3.10;99.90;;;;;;5002416;28;20219;-94
2022/03/18 02:04:41;;;;;;;39.58;24.75;;;3.10;99.90;;;;;;4997846;28;20195;-95
2022/03/18 02:07:08;;;;;;;40.13;24.42;;;3.00;99.90;;;;;;5000643;28;20191;-95
2022/03/18 02:09:35;;;;;;;36.63;23.30;;;3.00;99.90;;;;;;4998229;28;20314;-88
2022/03/18 02:12:06;;;;;;;36.75;23.65;;;2.90;99.90;;;;;;4997132;28;20203;-93
2022/03/18 02:14:52;;;;;;;44.90;25.42;;;2.90;99.90;;;;;;4996840;28;20271;-95
2022/03/18 02:17:18;;;;;;;43.15;22.83;;;2.80;99.90;;;;;;4996606;28;20253;-87
2022/03/18 02:19:46;;;;;;;37.08;21.85;;;2.80;99.90;;;;;;4997888;28;20199;-87
2022/03/18 02:22:35;;;;;;;40.33;23.20;;;2.80;99.90;;;;;;4999044;28;20276;-94
2022/03/18 02:25:02;;;;;;;40.25;24.65;;;2.70;99.90;;;;;;4998934;28;20192;-88
2022/03/18 02:27:28;;;;;;;38.47;22.35;;;2.70;99.90;;;;;;4998717;28;20693;-94
2022/03/18 02:29:54;;;;;;;35.03;22.10;;;2.70;99.90;;;;;;4999331;28;20187;-88
2022/03/18 02:32:20;;;;;;;34.40;22.60;;;2.70;99.90;;;;;;4998220;28;20446;-95
2022/03/18 02:34:46;;;;;;;42.90;24.73;;;2.70;99.90;;;;;;4998543;28;20408;-87
2022/03/18 02:37:12;;;;;;;33.83;22.30;;;2.70;99.90;;;;;;4997923;28;20212;-87
2022/03/18 02:39:38;;;;;;;37.40;23.80;;;2.60;99.90;;;;;;5005791;28;20180;-91
2022/03/18 02:42:04;;;;;;;34.87;21.60;;;2.60;99.90;;;;;;5014023;28;20785;-89
2022/03/18 02:44:31;;;;;;;33.92;24.27;;;2.70;99.90;;;;;;4999675;28;20180;-94
2022/03/18 02:46:58;;;;;;;37.38;24.17;;;2.70;99.90;;;;;;4996056;28;20210;-87
2022/03/18 02:49:25;;;;;;;39.95;22.65;;;2.70;99.90;;;;;;4995767;28;20219;-88
2022/03/18 02:51:51;;;;;;;44.15;27.02;;;2.70;99.90;;;;;;4997031;28;20168;-95
2022/03/18 02:54:17;;;;;;;34.05;21.58;;;2.70;99.90;;;;;;4998734;28;20180;-87
2022/03/18 02:56:43;;;;;;;33.07;22.00;;;2.70;99.90;;;;;;5012462;28;20183;-87
2022/03/18 02:59:09;;;;;;;39.70;23.50;;;2.70;99.90;;;;;;4995657;28;20187;-94
2022/03/18 03:01:35;;;;;;;36.85;23.98;;;2.60;99.90;;;;;;4996755;28;20164;-94
2022/03/18 03:04:01;;;;;;;35.97;22.08;;;2.60;99.90;;;;;;4995792;28;20191;-88
2022/03/18 03:09:13;;;;;;;38.45;23.30;;;2.60;99.90;;;;;;4998500;28;20331;-95
2022/03/18 03:11:38;;;;;;;34.42;22.98;;;2.50;99.90;;;;;;4996042;28;20172;-87
2022/03/18 03:14:04;;;;;;;39.23;23.67;;;2.50;99.90;;;;;;4999568;28;20242;-87
2022/03/18 03:16:30;;;;;;;36.00;22.93;;;2.40;99.90;;;;;;4997305;28;20897;-93
2022/03/18 03:18:57;;;;;;;39.75;25.48;;;2.40;99.90;;;;;;4998106;28;20212;-92
2022/03/18 03:21:23;;;;;;;39.17;23.25;;;2.30;99.90;;;;;;5002847;28;20641;-95
2022/03/18 03:23:48;;;;;;;36.57;23.40;;;2.30;99.90;;;;;;4998548;28;20203;-94
2022/03/18 03:26:14;;;;;;;35.90;23.47;;;2.30;99.90;;;;;;5000937;28;20413;-89
2022/03/18 03:28:41;;;;;;;39.37;22.90;;;2.30;99.90;;;;;;5012239;28;20568;-87
2022/03/18 03:31:07;;;;;;;33.03;22.80;;;2.20;99.90;;;;;;4996763;28;20451;-88
2022/03/18 03:33:33;;;;;;;35.47;21.23;;;2.20;99.90;;;;;;4996919;28;20200;-95
2022/03/18 03:35:59;;;;;;;37.50;22.92;;;2.20;99.90;;;;;;4996982;28;20400;-87
2022/03/18 03:38:25;;;;;;;42.80;23.27;;;2.20;99.90;;;;;;4997915;28;20216;-87
2022/03/18 03:40:52;;;;;;;33.45;23.15;;;2.20;99.90;;;;;;4996273;28;20816;-88
2022/03/18 03:43:17;;;;;;;31.48;22.20;;;2.10;99.90;;;;;;4996930;28;20274;-95
2022/03/18 03:45:43;;;;;;;40.23;23.93;;;2.10;99.90;;;;;;4998909;28;20204;-94
2022/03/18 03:48:10;;;;;;;33.00;21.57;;;2.10;99.90;;;;;;4998035;28;20669;-87
2022/03/18 03:50:37;;;;;;;32.05;20.98;;;2.10;99.90;;;;;;4996733;28;20175;-87
2022/03/18 03:53:03;;;;;;;34.05;22.13;;;2.10;99.90;;;;;;5000775;28;20200;-92
2022/03/18 03:55:29;;;;;;;38.92;22.83;;;2.10;99.90;;;;;;5013363;28;20180;-91
2022/03/18 03:57:55;;;;;;;33.50;22.35;;;2.10;99.90;;;;;;5002214;28;20691;-94
2022/03/18 04:00:21;;;;;;;37.10;23.07;;;2.20;99.90;;;;;;4996309;28;20176;-95
2022/03/18 04:02:47;;;;;;;33.30;20.90;;;2.20;99.90;;;;;;4994207;28;20420;-95
2022/03/18 04:05:13;;;;;;;34.40;21.60;;;2.20;99.90;;;;;;4995303;28;20491;-87
2022/03/18 04:07:41;;;;;;;33.77;22.93;;;2.30;99.90;;;;;;4996273;28;20412;-87
2022/03/18 04:10:09;;;;;;;38.08;22.85;;;2.30;99.90;;;;;;4996085;28;20405;-94
2022/03/18 04:12:35;;;;;;;35.05;21.02;;;2.30;99.90;;;;;;4995659;28;20192;-94
2022/03/18 04:15:03;;;;;;;37.30;22.02;;;2.40;99.90;;;;;;4994609;28;20294;-94
2022/03/18 04:17:43;;;;;;;35.33;21.98;;;2.50;99.90;;;;;;4994955;28;20697;-87
2022/03/18 04:20:10;;;;;;;32.80;22.08;;;2.50;99.90;;;;;;4995168;28;20188;-88
2022/03/18 04:22:37;;;;;;;32.03;21.73;;;2.50;99.90;;;;;;4995445;28;20246;-88
2022/03/18 04:25:03;;;;;;;40.67;24.48;;;2.50;99.90;;;;;;4995645;28;20191;-87
2022/03/18 04:27:29;;;;;;;33.85;21.33;;;2.50;99.90;;;;;;4994611;28;20204;-95
2022/03/18 04:29:55;;;;;;;36.50;23.20;;;2.50;99.90;;;;;;4997201;28;20242;-94
2022/03/18 04:32:20;;;;;;;34.03;21.90;;;2.50;99.90;;;;;;4999802;28;20445;-87
2022/03/18 04:34:46;;;;;;;37.30;22.90;;;2.50;99.90;;;;;;5004785;28;20195;-94
2022/03/18 04:37:12;;;;;;;40.83;22.57;;;2.40;99.90;;;;;;5004174;28;20590;-92
2022/03/18 04:39:37;;;;;;;36.70;21.70;;;2.50;99.90;;;;;;5000150;28;20191;-95
2022/03/18 04:42:04;;;;;;;34.77;20.37;;;2.50;99.90;;;;;;4995702;28;20203;-87
2022/03/18 04:44:29;;;;;;;34.22;21.65;;;2.50;99.90;;;;;;5011267;28;20560;-88
2022/03/18 04:46:55;;;;;;;44.77;26.37;;;2.60;99.90;;;;;;4994945;28;20198;-87
2022/03/18 04:49:21;;;;;;;40.80;27.00;;;2.70;99.90;;;;;;4998648;28;20219;-87
2022/03/18 04:51:46;;;;;;;44.20;28.47;;;2.70;99.90;;;;;;5000165;28;20171;-87
2022/03/18 04:54:12;;;;;;;45.57;27.90;;;2.80;99.90;;;;;;4997115;28;20180;-96
2022/03/18 04:59:22;;;;;;;41.88;24.95;;;2.80;99.90;;;;;;5001852;28;20491;-94
2022/03/18 05:01:48;;;;;;;38.00;24.03;;;2.90;99.90;;;;;;5003606;28;20207;-93
2022/03/18 05:04:13;;;;;;;69.03;31.37;;;2.90;99.90;;;;;;5005237;28;20195;-88
2022/03/18 05:06:39;;;;;;;139.77;53.80;;;2.90;99.90;;;;;;5019178;28;20186;-95
2022/03/18 05:09:06;;;;;;;93.60;40.90;;;3.00;99.90;;;;;;5000737;28;20250;-94
2022/03/18 05:11:32;;;;;;;58.38;30.10;;;3.00;99.90;;;;;;5007782;28;20389;-94
2022/03/18 05:13:58;;;;;;;61.50;33.30;;;3.00;99.90;;;;;;4999627;28;20208;-95
2022/03/18 05:16:25;;;;;;;61.55;31.33;;;3.00;99.90;;;;;;5019105;28;20876;-86
2022/03/18 05:18:51;;;;;;;42.45;25.10;;;3.10;99.90;;;;;;5018374;28;20210;-94
2022/03/18 05:21:17;;;;;;;31.05;20.77;;;3.10;99.90;;;;;;5019491;28;20211;-87
2022/03/18 05:23:43;;;;;;;35.37;20.83;;;3.10;99.90;;;;;;5018765;28;20199;-88
2022/03/18 05:26:09;;;;;;;30.80;19.73;;;3.10;99.90;;;;;;5020412;28;20939;-90
2022/03/18 05:28:36;;;;;;;32.53;21.30;;;3.10;99.90;;;;;;5018694;28;20403;-88
2022/03/18 05:31:01;;;;;;;39.83;21.80;;;3.10;99.90;;;;;;5020855;28;20417;-88
2022/03/18 05:33:27;;;;;;;33.97;20.10;;;3.10;99.90;;;;;;5026510;28;20195;-88
2022/03/18 05:35:53;;;;;;;24.60;17.13;;;3.10;99.90;;;;;;5024389;28;20237;-87
2022/03/18 05:38:19;;;;;;;41.83;23.43;;;3.10;99.90;;;;;;5025980;28;20194;-90
2022/03/18 05:40:44;;;;;;;26.43;18.03;;;3.10;99.90;;;;;;5017833;28;20195;-95
2022/03/18 05:43:10;;;;;;;56.47;27.67;;;3.00;99.90;;;;;;4996899;28;20433;-88
2022/03/18 05:45:36;;;;;;;36.80;20.87;;;3.10;99.90;;;;;;5013831;28;20918;-94
2022/03/18 05:48:02;;;;;;;41.47;21.90;;;3.10;99.90;;;;;;5013659;28;20204;-94
2022/03/18 05:50:27;;;;;;;38.97;22.17;;;3.10;99.90;;;;;;4997513;28;20242;-87
2022/03/18 05:52:55;;;;;;;28.00;17.90;;;3.10;99.90;;;;;;4996494;28;20847;-87
2022/03/18 05:55:21;;;;;;;29.20;16.77;;;3.20;99.90;;;;;;4999514;28;20447;-87
2022/03/18 05:57:46;;;;;;;32.30;18.90;;;3.20;99.90;;;;;;5018093;28;20673;-87
2022/03/18 06:00:14;;;;;;;35.07;20.20;;;3.30;99.90;;;;;;5013317;28;20242;-94
2022/03/18 06:02:41;;;;;;;104.75;50.78;;;3.40;99.90;;;;;;5016462;28;20691;-95
2022/03/18 06:05:08;;;;;;;56.88;30.88;;;3.40;99.90;;;;;;5016745;28;20191;-95
2022/03/18 06:07:36;;;;;;;52.78;30.40;;;3.50;99.90;;;;;;5016493;28;20199;-88
2022/03/18 06:12:46;;;;;;;62.95;33.28;;;3.70;99.90;;;;;;5005527;28;20215;-94
2022/03/18 06:15:12;;;;;;;41.90;21.87;;;3.80;99.90;;;;;;4993242;28;20188;-88
2022/03/18 06:17:38;;;;;;;30.50;19.27;;;3.90;99.90;;;;;;4997396;28;20223;-95
2022/03/18 06:20:04;;;;;;;20.37;15.47;;;4.00;99.90;;;;;;5014627;28;20210;-92
2022/03/18 06:22:30;;;;;;;21.98;16.02;;;4.00;99.90;;;;;;5015559;28;20285;-95
2022/03/18 06:24:56;;;;;;;26.80;16.23;;;4.10;99.90;;;;;;5015755;28;20278;-88
2022/03/18 06:27:21;;;;;;;20.83;15.17;;;4.10;99.90;;;;;;5016579;28;20239;-88
2022/03/18 06:29:47;;;;;;;21.27;15.77;;;4.20;99.90;;;;;;5014560;28;20191;-88
2022/03/18 06:32:13;;;;;;;24.00;15.70;;;4.20;99.90;;;;;;5016605;28;20203;-87
2022/03/18 06:34:38;;;;;;;25.33;15.47;;;4.30;99.90;;;;;;5014614;28;20241;-87
2022/03/18 06:37:06;;;;;;;17.10;14.43;;;4.30;99.90;;;;;;5013531;28;20207;-95
2022/03/18 06:39:32;;;;;;;23.13;14.00;;;4.40;99.90;;;;;;5009346;28;20479;-95
2022/03/18 06:41:58;;;;;;;19.88;13.13;;;4.40;99.90;;;;;;5014507;28;20198;-95
2022/03/18 06:44:24;;;;;;;17.00;13.23;;;4.50;99.90;;;;;;5009962;28;20196;-95
2022/03/18 06:46:49;;;;;;;17.17;11.33;;;4.60;99.90;;;;;;5011944;28;20191;-95
2022/03/18 06:49:16;;;;;;;16.80;13.23;;;4.60;99.90;;;;;;5017528;28;20195;-86
2022/03/18 06:51:42;;;;;;;14.32;10.95;;;4.70;99.90;;;;;;5007073;28;20417;-94
2022/03/18 06:54:08;;;;;;;20.20;12.90;;;4.70;99.90;;;;;;5014890;28;20274;-95
2022/03/18 06:56:33;;;;;;;15.13;11.80;;;4.70;99.90;;;;;;4999448;28;20472;-92
2022/03/18 06:59:00;;;;;;;14.97;12.40;;;4.80;99.90;;;;;;5013057;28;20219;-94
2022/03/18 07:01:26;;;;;;;16.15;11.38;;;4.80;99.90;;;;;;5007751;28;20884;-93
2022/03/18 07:04:03;;;;;;;17.52;12.85;;;4.80;99.90;;;;;;5019064;28;20601;-86
2022/03/18 07:06:28;;;;;;;18.75;11.00;;;4.80;99.90;;;;;;4998076;28;20180;-95
2022/03/18 07:08:54;;;;;;;18.50;12.47;;;4.80;99.90;;;;;;5009058;28;20306;-88
2022/03/18 07:11:20;;;;;;;13.60;10.20;;;4.80;99.90;;;;;;5011527;28;20445;-93
2022/03/18 07:13:46;;;;;;;13.40;11.10;;;4.80;99.90;;;;;;5011451;28;20578;-95
2022/03/18 07:18:56;;;;;;;14.68;11.68;;;4.90;99.90;;;;;;5006328;28;20470;-96
2022/03/18 07:21:21;;;;;;;16.57;12.77;;;5.00;99.90;;;;;;5009767;28;20555;-88
2022/03/18 07:23:48;;;;;;;16.17;11.90;;;5.00;99.90;;;;;;5005086;28;20435;-87
2022/03/18 07:26:14;;;;;;;14.32;11.00;;;5.00;99.90;;;;;;5009523;28;20198;-87
2022/03/18 07:28:40;;;;;;;22.73;10.53;;;5.10;99.90;;;;;;5012553;28;20595;-85
2022/03/18 07:31:06;;;;;;;19.07;10.50;;;5.10;99.90;;;;;;5012316;28;20194;-92
2022/03/18 07:33:32;;;;;;;14.50;10.33;;;5.20;99.90;;;;;;5004248;28;20208;-93
2022/03/18 07:36:00;;;;;;;17.65;13.05;;;5.20;99.90;;;;;;5010651;28;20566;-85
2022/03/18 07:38:26;;;;;;;17.77;11.55;;;5.30;99.90;;;;;;5003297;28;20286;-86
2022/03/18 07:40:52;;;;;;;16.43;11.50;;;5.30;99.90;;;;;;5016626;28;20210;-92
2022/03/18 07:43:18;;;;;;;16.93;10.97;;;5.40;99.90;;;;;;5014127;28;20211;-86
2022/03/18 07:45:43;;;;;;;19.57;12.50;;;5.40;99.90;;;;;;4998411;28;20507;-88
2022/03/18 07:48:09;;;;;;;19.53;12.13;;;5.40;99.90;;;;;;5013475;28;20207;-86
2022/03/18 07:50:37;;;;;;;12.53;9.30;;;5.50;99.90;;;;;;4989066;28;20230;-94
2022/03/18 07:53:05;;;;;;;13.88;10.02;;;5.50;99.90;;;;;;5004156;28;20449;-87
2022/03/18 07:55:33;;;;;;;14.77;10.93;;;5.60;99.90;;;;;;5000737;28;20179;-94
2022/03/18 07:57:59;;;;;;;9.98;8.57;;;5.70;99.90;;;;;;5008043;28;20215;-86
2022/03/18 08:00:26;;;;;;;11.55;9.45;;;5.80;99.90;;;;;;4993060;28;20179;-93
2022/03/18 08:02:53;;;;;;;9.43;7.00;;;5.90;99.90;;;;;;4986800;28;20223;-87
2022/03/18 08:05:20;;;;;;;13.30;9.77;;;6.00;99.90;;;;;;4996572;28;20249;-94
2022/03/18 08:07:46;;;;;;;12.52;8.82;;;6.10;99.90;;;;;;5026576;28;20207;-87
2022/03/18 08:10:14;;;;;;;18.90;11.57;;;6.10;99.90;;;;;;5008373;28;20183;-95
2022/03/18 08:12:41;;;;;;;13.10;9.15;;;6.20;99.90;;;;;;5003216;28;20242;-87
2022/03/18 08:15:12;;;;;;;14.48;10.27;;;6.20;99.90;;;;;;5012900;28;20188;-87
2022/03/18 08:17:40;;;;;;;24.83;14.73;;;6.20;99.90;;;;;;4999961;28;20223;-94
2022/03/18 08:20:11;;;;;;;15.43;8.70;;;6.30;99.90;;;;;;5013334;28;20282;-87
2022/03/18 08:22:38;;;;;;;27.02;15.65;;;6.30;99.90;;;;;;5002823;28;20211;-87
2022/03/18 08:25:05;;;;;;;15.80;10.93;;;6.30;99.90;;;;;;4996533;28;20691;-88
2022/03/18 08:27:32;;;;;;;18.48;12.25;;;6.30;99.90;;;;;;4998748;28;20275;-87
2022/03/18 08:30:01;;;;;;;15.52;10.05;;;6.40;99.90;;;;;;4999036;28;20270;-88
2022/03/18 08:32:28;;;;;;;13.60;10.20;;;6.60;99.90;;;;;;4993114;28;20204;-87
2022/03/18 08:34:55;;;;;;;16.27;12.52;;;6.70;99.90;;;;;;5004536;28;20183;-95
2022/03/18 08:40:06;;;;;;;16.13;10.07;;;7.00;99.90;;;;;;4989008;28;20186;-89
2022/03/18 08:42:32;;;;;;;19.40;12.10;;;7.10;99.90;;;;;;5018397;28;20207;-92
2022/03/18 08:44:58;;;;;;;15.05;10.23;;;7.20;99.90;;;;;;5010939;28;20206;-93
2022/03/18 08:47:25;;;;;;;15.48;10.38;;;7.30;99.90;;;;;;5014590;28;20210;-93
2022/03/18 08:49:51;;;;;;;18.25;11.20;;;7.40;99.90;;;;;;5014648;28;20687;-93
2022/03/18 08:52:19;;;;;;;12.90;10.30;;;7.60;99.90;;;;;;5010332;28;20435;-94
2022/03/18 08:54:48;;;;;;;12.50;9.55;;;7.80;99.90;;;;;;5009604;28;20196;-92
2022/03/18 08:57:14;;;;;;;11.68;9.50;;;7.90;99.70;;;;;;5000026;28;20215;-92
2022/03/18 08:59:40;;;;;;;12.65;10.40;;;8.00;99.60;;;;;;5001938;28;20281;-94
2022/03/18 09:02:06;;;;;;;17.00;11.13;;;8.10;99.30;;;;;;4991958;28;20227;-94
2022/03/18 09:04:32;;;;;;;11.63;9.20;;;8.20;99.60;;;;;;4992039;28;20444;-92
2022/03/18 09:06:58;;;;;;;16.30;11.57;;;8.30;98.90;;;;;;5019096;28;20432;-93
2022/03/18 09:09:23;;;;;;;11.57;9.70;;;8.40;98.80;;;;;;5014886;28;20327;-93
2022/03/18 09:11:53;;;;;;;16.30;11.17;;;8.50;98.60;;;;;;5000558;28;20183;-91
2022/03/18 09:14:18;;;;;;;14.43;10.57;;;8.60;98.30;;;;;;5008978;28;20206;-93
2022/03/18 09:16:44;;;;;;;15.23;11.60;;;8.70;98.10;;;;;;5017875;28;20187;-92
2022/03/18 09:19:10;;;;;;;14.30;10.57;;;8.80;97.60;;;;;;5000202;28;20247;-89
2022/03/18 09:21:36;;;;;;;13.80;10.30;;;8.80;97.50;;;;;;5012250;28;20187;-91
2022/03/18 09:24:02;;;;;;;14.90;11.20;;;8.90;97.20;;;;;;5012442;28;20533;-93
2022/03/18 09:26:29;;;;;;;12.10;9.70;;;9.00;97.20;;;;;;5007537;28;20557;-91
2022/03/18 09:28:55;;;;;;;13.90;11.00;;;9.20;96.70;;;;;;5002378;28;20196;-91
2022/03/18 09:31:21;;;;;;;27.65;12.18;;;9.30;96.70;;;;;;4989615;28;20216;-91
2022/03/18 09:33:47;;;;;;;13.23;9.60;;;9.50;96.60;;;;;;4990210;28;20228;-92
2022/03/18 09:36:18;;;;;;;15.27;11.48;;;9.70;96.00;;;;;;4992075;28;20414;-93
2022/03/18 09:38:48;;;;;;;14.63;9.77;;;9.80;95.50;;;;;;4992403;28;20228;-92
2022/03/18 09:41:14;;;;;;;14.43;10.10;;;9.90;95.60;;;;;;4992253;28;20242;-92
2022/03/18 09:43:44;;;;;;;15.32;10.60;;;10.00;94.90;;;;;;4992913;28;20295;-92
2022/03/18 09:46:13;;;;;;;15.07;10.07;;;10.00;95.10;;;;;;4996670;28;20196;-92
2022/03/18 09:48:40;;;;;;;13.15;9.40;;;10.30;94.80;;;;;;4994360;28;20246;-93
2022/03/18 09:51:06;;;;;;;16.13;10.48;;;10.50;94.60;;;;;;4991507;28;20184;-92
2022/03/18 09:53:34;;;;;;;11.32;9.95;;;10.90;94.10;;;;;;4979285;28;20206;-92
2022/03/18 09:56:00;;;;;;;13.07;9.20;;;11.10;93.40;;;;;;4993585;28;20184;-92
2022/03/18 09:58:27;;;;;;;16.25;11.90;;;11.30;92.80;;;;;;4993581;28;20552;-92
2022/03/18 10:00:57;;;;;;;16.67;13.10;;;11.30;92.60;;;;;;4989005;28;20194;-92
2022/03/18 10:03:35;;;;;;;12.60;10.60;;;11.40;93.00;;;;;;4993747;28;20230;-93
2022/03/18 10:06:02;;;;;;;14.48;10.52;;;11.50;92.30;;;;;;4990731;28;20242;-92
2022/03/18 10:08:50;;;;;;;13.23;10.85;;;11.60;91.90;;;;;;4996552;28;20249;-91
2022/03/18 10:11:21;;;;;;;16.70;11.55;;;11.70;91.40;;;;;;5002265;28;20216;-93
2022/03/18 10:13:52;;;;;;;15.95;11.82;;;11.70;91.10;;;;;;5004804;28;20476;-92
2022/03/18 10:16:42;;;;;;;14.15;11.20;;;11.60;91.20;;;;;;4996962;28;20242;-93
2022/03/18 10:19:13;;;;;;;15.75;11.50;;;11.60;91.60;;;;;;4990789;28;20232;-94
2022/03/18 10:21:54;;;;;;;15.63;10.30;;;11.60;91.70;;;;;;4989675;28;20176;-94
2022/03/18 10:24:51;;;;;;;14.68;10.68;;;11.60;91.40;;;;;;5005974;28;20668;-94
2022/03/18 10:27:20;;;;;;;11.07;9.27;;;11.60;91.50;;;;;;4975316;28;20336;-94
2022/03/18 10:29:54;;;;;;;15.45;10.93;;;11.70;91.30;;;;;;4992537;28;20267;-93
2022/03/18 10:32:31;;;;;;;14.43;11.05;;;11.80;91.10;;;;;;5004248;28;20215;-93
2022/03/18 10:37:49;;;;;;;16.02;11.15;;;11.80;90.70;;;;;;4982896;28;20231;-93
2022/03/18 10:40:34;;;;;;;471.77;197.57;;;11.70;90.90;;;;;;5028915;28;20278;-93
2022/03/18 10:43:02;;;;;;;12.18;10.10;;;11.70;91.70;;;;;;4999259;28;20298;-93
2022/03/18 10:45:28;;;;;;;16.98;12.07;;;11.70;90.80;;;;;;4993892;28;20222;-93
2022/03/18 10:48:08;;;;;;;13.90;12.10;;;11.80;90.60;;;;;;5004564;28;20261;-93
2022/03/18 10:50:34;;;;;;;14.73;11.93;;;11.70;90.40;;;;;;5000096;28;20449;-93
2022/03/18 10:53:04;;;;;;;14.50;11.60;;;11.60;90.50;;;;;;5026125;28;20218;-93
2022/03/18 10:55:36;;;;;;;18.25;11.48;;;11.50;90.70;;;;;;5016035;28;20175;-93
2022/03/18 10:58:17;;;;;;;13.95;12.15;;;11.40;91.20;;;;;;5015120;28;20212;-93
2022/03/18 11:00:49;;;;;;;15.10;10.93;;;11.40;90.80;;;;;;4977732;28;20255;-96
2022/03/18 11:03:15;;;;;;;14.43;11.57;;;11.40;91.70;;;;;;4990674;28;20851;-93
2022/03/18 11:05:47;;;;;;;13.75;11.35;;;11.50;91.70;;;;;;4997043;28;20508;-96
2022/03/18 11:08:24;;;;;;;17.65;11.05;;;11.70;91.00;;;;;;4998853;28;20227;-93
2022/03/18 11:11:10;;;;;;;17.33;11.88;;;11.80;91.00;;;;;;5008220;28;20271;-95
2022/03/18 11:13:45;;;;;;;12.70;10.82;;;12.00;90.50;;;;;;5002415;28;20207;-94
2022/03/18 11:16:12;;;;;;;16.83;12.52;;;12.10;90.20;;;;;;4994509;28;20195;-93
2022/03/18 11:18:39;;;;;;;11.70;10.05;;;12.10;90.10;;;;;;5008992;28;20729;-95
2022/03/18 11:21:07;;;;;;;14.60;11.20;;;12.20;90.30;;;;;;5021013;28;20218;-95
2022/03/18 11:23:34;;;;;;;16.80;12.20;;;12.30;90.00;;;;;;5008500;28;20250;-95
2022/03/18 11:26:00;;;;;;;14.10;11.25;;;12.20;89.70;;;;;;4992454;28;20187;-96
2022/03/18 11:28:26;;;;;;;16.67;12.70;;;12.20;89.60;;;;;;5007100;28;20261;-95
2022/03/18 11:31:07;;;;;;;16.02;12.00;;;12.20;89.60;;;;;;5000233;28;20398;-95
2022/03/18 11:33:34;;;;;;;14.77;11.65;;;12.10;89.50;;;;;;5005123;28;20230;-96
2022/03/18 11:36:00;;;;;;;19.63;14.30;;;12.10;90.00;;;;;;4995728;28;20226;-95
2022/03/18 11:38:45;;;;;;;15.73;11.40;;;12.00;89.30;;;;;;4999208;28;20303;-92
2022/03/18 11:41:11;;;;;;;16.73;11.85;;;12.10;90.10;;;;;;5016659;28;20191;-91
2022/03/18 11:43:42;;;;;;;14.67;11.50;;;12.20;90.60;;;;;;4991196;28;20635;-90
2022/03/18 11:46:28;;;;;;;15.57;12.05;;;12.40;90.00;;;;;;5009742;28;20218;-88
2022/03/18 11:49:08;;;;;;;14.52;12.10;;;12.50;88.50;;;;;;4992492;28;20268;-91
2022/03/18 11:51:42;;;;;;;18.15;13.10;;;12.60;88.70;;;;;;4990207;28;20188;-90
2022/03/18 11:54:24;;;;;;;16.88;11.02;;;12.70;89.80;;;;;;5005629;28;20208;-92
2022/03/18 11:56:54;;;;;;;15.35;11.27;;;12.80;88.60;;;;;;4996749;28;20557;-93
2022/03/18 11:59:29;;;;;;;17.57;11.83;;;12.90;88.30;;;;;;5007382;28;20219;-88
2022/03/18 12:02:03;;;;;;;14.38;11.32;;;13.10;88.40;;;;;;5003082;28;20478;-91
2022/03/18 12:04:44;;;;;;;14.60;11.50;;;13.10;88.10;;;;;;4985748;28;20179;-93
2022/03/18 12:09:57;;;;;;;15.83;13.30;;;13.20;87.50;;;;;;4996099;28;20831;-92
2022/03/18 12:12:29;;;;;;;15.80;11.40;;;13.20;86.20;;;;;;5002019;28;20496;-92
2022/03/18 12:14:57;;;;;;;17.73;12.70;;;13.20;87.20;;;;;;4990991;28;20476;-88
2022/03/18 12:17:24;;;;;;;16.23;11.83;;;13.20;86.90;;;;;;4990382;28;20469;-88
2022/03/18 12:19:52;;;;;;;14.77;11.20;;;13.20;86.40;;;;;;4990784;28;20421;-89
2022/03/18 12:22:20;;;;;;;16.60;12.90;;;13.20;86.70;;;;;;4993158;28;20461;-94
2022/03/18 12:24:52;;;;;;;15.47;11.90;;;13.20;87.30;;;;;;4993569;28;20433;-89
2022/03/18 12:27:20;;;;;;;17.60;12.37;;;13.30;87.30;;;;;;4990939;28;20476;-90
2022/03/18 12:29:46;;;;;;;15.80;12.80;;;13.30;87.10;;;;;;4988706;28;20433;-90
2022/03/18 12:32:18;;;;;;;15.23;12.63;;;13.30;87.00;;;;;;4984685;28;20501;-93
2022/03/18 12:34:51;;;;;;;16.90;13.30;;;13.30;86.50;;;;;;4988034;28;20528;-94
2022/03/18 12:37:23;;;;;;;16.87;12.37;;;13.30;86.80;;;;;;4992041;28;20531;-92
2022/03/18 12:40:10;;;;;;;18.20;14.30;;;13.40;86.60;;;;;;4994807;28;20484;-92
2022/03/18 12:42:56;;;;;;;18.63;12.87;;;13.30;86.60;;;;;;4986850;28;20647;-92
2022/03/18 12:45:42;;;;;;;17.23;12.60;;;13.40;86.90;;;;;;4983831;28;20450;-92
2022/03/18 12:48:13;;;;;;;16.00;12.90;;;13.40;86.90;;;;;;5001935;28;20499;-88
2022/03/18 12:50:50;;;;;;;16.23;11.50;;;13.40;86.60;;;;;;4982698;28;20516;-92
2022/03/18 12:53:18;;;;;;;18.23;13.20;;;13.50;86.00;;;;;;5005304;28;20456;-91
2022/03/18 12:55:48;;;;;;;14.57;12.10;;;13.50;86.50;;;;;;4984447;28;20437;-89
2022/03/18 12:58:13;;;;;;;19.00;13.67;;;13.60;85.80;;;;;;4991935;28;20614;-91
2022/03/18 13:00:42;;;;;;;18.53;12.73;;;13.60;86.00;;;;;;4996071;28;20436;-95
2022/03/18 13:03:17;;;;;;;15.20;12.00;;;13.60;85.90;;;;;;5000496;28;20692;-92
2022/03/18 13:05:44;;;;;;;21.63;13.83;;;13.60;85.40;;;;;;4993340;28;20896;-93